Terminal Aerodrome Forecast
Issued by NWS

Home | Current Version | Previous Version | Text Only | Print | Product List | Glossary On
Versions: 1 2 3 4 5 6 7 8 9 10 11 12 13 14 15 16 17 18 19 20 21 22
000
FTUS44 KBMX 211408 AAA
TAFTOI
TAF AMD
KTOI 211408Z 2114/2212 00000KT 5SM -RA OVC060
     FM211600 14008KT 4SM -SHRA OVC025
      TEMPO 2116/2120 2SM SHRA BR OVC015
     FM212000 11005KT 4SM SHRA BR OVC008
     FM220600 09003KT 4SM BR OVC007=

USA.gov is the U.S. government's official web portal to all federal, state and local government web resources and services.